Time;durP1;ratioP1;P1;durP2;ratioP2;P2;SDS_P1;SDS_P2;PMS_P1;PMS_P2;Temp;Humidity;BMP_temperature;BMP_pressure;BME280_temperature;BME280_humidity;BME280_pressure;Samples;Min_cycle;Max_cycle;Signal;HPM_P1;HPM_P2
2021/11/30 00:01:15;;;;;;;0.43;0.43;;;;;;;4.29;66.96;98493.09;5044985;28;20135;-73
2021/11/30 00:03:43;;;;;;;0.20;0.20;;;;;;;4.30;66.91;98502.59;5051964;28;20053;-70
2021/11/30 00:06:11;;;;;;;0.32;0.32;;;;;;;4.31;66.79;98488.59;5066050;28;20135;-73
2021/11/30 00:08:40;;;;;;;1.27;0.68;;;;;;;4.32;66.79;98503.34;5066487;28;20097;-73
2021/11/30 00:11:10;;;;;;;1.35;0.88;;;;;;;4.31;66.80;98488.59;5066379;28;20071;-70
2021/11/30 00:13:40;;;;;;;7.57;3.50;;;;;;;4.28;66.81;98512.34;5064523;28;20617;-72
2021/11/30 00:16:08;;;;;;;0.20;0.20;;;;;;;4.29;66.72;98516.63;5066007;28;20040;-71
2021/11/30 00:18:36;;;;;;;0.25;0.25;;;;;;;4.32;66.79;98507.72;5063623;28;20460;-72
2021/11/30 00:21:05;;;;;;;0.57;0.57;;;;;;;4.33;66.57;98517.22;5064482;28;20048;-72
2021/11/30 00:23:33;;;;;;;4.70;4.40;;;;;;;4.36;66.37;98517.84;5065551;28;20069;-72
2021/11/30 00:26:00;;;;;;;0.17;0.17;;;;;;;4.38;65.98;98523.78;5065436;28;20131;-70
2021/11/30 00:28:29;;;;;;;0.10;0.10;;;;;;;4.35;65.85;98531.03;5064881;28;20051;-71
2021/11/30 00:30:56;;;;;;;0.10;0.10;;;;;;;4.35;65.82;98524.00;5066358;28;20048;-68
2021/11/30 00:33:23;;;;;;;0.20;0.20;;;;;;;4.36;65.81;98530.09;5064393;28;20071;-70
2021/11/30 00:35:50;;;;;;;0.10;0.10;;;;;;;4.36;65.63;98538.75;5064574;28;20048;-71
2021/11/30 00:38:18;;;;;;;1.80;1.70;;;;;;;4.37;65.69;98545.63;5065658;28;20040;-68
2021/11/30 00:40:46;;;;;;;0.40;0.40;;;;;;;4.36;65.54;98548.38;5065433;28;20049;-71
2021/11/30 00:43:20;;;;;;;0.20;0.20;;;;;;;4.38;65.63;98559.56;5064568;28;20052;-71
2021/11/30 00:45:56;;;;;;;0.28;0.28;;;;;;;4.39;65.50;98564.66;5066341;28;20067;-71
2021/11/30 00:48:30;;;;;;;0.22;0.22;;;;;;;4.41;65.46;98561.91;5062797;28;20045;-69
2021/11/30 00:51:00;;;;;;;13.68;2.90;;;;;;;4.39;65.45;98559.44;5065076;28;20076;-71
2021/11/30 00:53:27;;;;;;;1.40;1.40;;;;;;;4.38;65.05;98565.59;5066399;28;20056;-70
2021/11/30 00:55:54;;;;;;;0.32;0.32;;;;;;;4.35;65.38;98572.84;5065050;28;20062;-69
2021/11/30 00:58:21;;;;;;;0.68;0.68;;;;;;;4.32;65.30;98571.28;5065723;28;20054;-70
2021/11/30 01:00:50;;;;;;;0.73;0.73;;;;;;;4.35;65.36;98572.84;5065879;28;20044;-70
2021/11/30 01:03:17;;;;;;;3.08;2.85;;;;;;;4.32;65.38;98573.91;5064698;28;20055;-71
2021/11/30 01:05:44;;;;;;;0.10;0.10;;;;;;;4.31;65.21;98577.47;5065270;28;20044;-71
2021/11/30 01:08:11;;;;;;;0.13;0.13;;;;;;;4.31;65.16;98580.06;5046753;28;20058;-71
2021/11/30 01:10:38;;;;;;;0.10;0.10;;;;;;;4.32;65.03;98586.97;5065872;28;20044;-70
2021/11/30 01:13:06;;;;;;;0.32;0.32;;;;;;;4.32;65.01;98584.38;5065756;28;20052;-71
2021/11/30 01:15:33;;;;;;;0.10;0.10;;;;;;;4.32;64.98;98583.50;5065927;28;20054;-69
2021/11/30 01:18:01;;;;;;;0.30;0.30;;;;;;;4.31;64.96;98587.09;5062667;28;20131;-70
2021/11/30 01:20:29;;;;;;;0.10;0.10;;;;;;;4.31;65.02;98590.53;5065639;28;20051;-70
2021/11/30 01:22:56;;;;;;;0.95;0.95;;;;;;;4.32;64.82;98581.75;5066126;28;20059;-71
2021/11/30 01:25:24;;;;;;;0.10;0.10;;;;;;;4.35;64.84;98584.13;5065013;28;20120;-70
2021/11/30 01:27:51;;;;;;;0.30;0.30;;;;;;;4.36;64.62;98575.34;5065026;28;20048;-70
2021/11/30 01:30:18;;;;;;;0.00;0.00;;;;;;;4.34;64.46;98587.69;5064986;28;20047;-70
2021/11/30 01:32:47;;;;;;;0.10;0.10;;;;;;;4.36;64.42;98579.75;5065227;28;20054;-70
2021/11/30 01:35:17;;;;;;;0.10;0.10;;;;;;;4.35;64.30;98578.06;5068597;28;20055;-70
2021/11/30 01:37:44;;;;;;;0.10;0.10;;;;;;;4.33;64.28;98591.25;5069793;28;20365;-68
2021/11/30 01:40:15;;;;;;;0.10;0.10;;;;;;;4.32;64.10;98600.03;5069634;28;20162;-69
2021/11/30 01:42:44;;;;;;;0.10;0.10;;;;;;;4.32;63.99;98594.81;5069380;28;20139;-69
2021/11/30 01:45:20;;;;;;;3.22;1.05;;;;;;;4.30;63.87;98593.25;5068710;28;20044;-71
2021/11/30 01:48:10;;;;;;;0.63;0.63;;;;;;;4.28;63.66;98597.75;5065389;28;20419;-71
2021/11/30 01:50:40;;;;;;;0.10;0.10;;;;;;;4.29;63.59;98607.28;5069459;28;20048;-72
2021/11/30 01:53:08;;;;;;;0.10;0.10;;;;;;;4.26;63.66;98604.88;5068298;28;20041;-71
2021/11/30 01:55:35;;;;;;;0.10;0.10;;;;;;;4.26;63.55;98608.31;5068994;28;20049;-71
2021/11/30 01:58:04;;;;;;;0.17;0.17;;;;;;;4.23;63.36;98595.47;5070261;28;20048;-70
2021/11/30 02:00:37;;;;;;;0.28;0.28;;;;;;;4.20;63.26;98611.38;5068162;28;20044;-70
2021/11/30 02:03:06;;;;;;;0.10;0.10;;;;;;;4.16;63.30;98620.38;5068698;28;20049;-69
2021/11/30 02:05:34;;;;;;;0.10;0.10;;;;;;;4.13;63.15;98631.06;5068717;28;20385;-71
2021/11/30 02:08:03;;;;;;;0.10;0.10;;;;;;;4.15;63.23;98627.38;5068079;28;20055;-72
2021/11/30 02:10:32;;;;;;;0.10;0.10;;;;;;;4.13;62.81;98629.28;5068979;28;20052;-71
2021/11/30 02:13:00;;;;;;;0.20;0.20;;;;;;;4.12;63.09;98634.63;5068786;28;20127;-73
2021/11/30 02:15:27;;;;;;;0.40;0.40;;;;;;;4.11;63.02;98625.13;5067661;28;20147;-70
2021/11/30 02:17:55;;;;;;;0.10;0.10;;;;;;;4.07;62.70;98645.41;5066923;28;20059;-70
2021/11/30 02:20:23;;;;;;;0.10;0.10;;;;;;;4.09;62.98;98646.13;5068523;28;20053;-71
2021/11/30 02:22:54;;;;;;;0.20;0.20;;;;;;;4.09;63.08;98645.28;5065694;28;20650;-72
2021/11/30 02:25:22;;;;;;;0.47;0.47;;;;;;;4.06;62.79;98648.13;5068846;28;20512;-73
2021/11/30 02:27:51;;;;;;;0.10;0.10;;;;;;;4.06;63.21;98646.34;5068608;28;20404;-72
2021/11/30 02:30:18;;;;;;;0.10;0.10;;;;;;;4.02;63.23;98648.34;5068051;28;20501;-72
2021/11/30 02:32:45;;;;;;;0.10;0.10;;;;;;;4.06;63.31;98635.06;5069043;28;20055;-74
2021/11/30 02:35:14;;;;;;;0.10;0.10;;;;;;;4.00;63.17;98641.56;5067940;28;20702;-70
2021/11/30 02:37:45;;;;;;;2.83;1.58;;;;;;;4.00;63.31;98644.19;5067063;28;20615;-70
2021/11/30 02:40:12;;;;;;;0.10;0.10;;;;;;;3.94;63.16;98642.84;5068753;28;20135;-69
2021/11/30 02:42:41;;;;;;;0.32;0.32;;;;;;;3.89;62.95;98637.09;5067380;28;20056;-69
2021/11/30 02:45:09;;;;;;;0.65;0.65;;;;;;;3.89;62.92;98644.94;5068514;28;20070;-69
2021/11/30 02:47:36;;;;;;;0.10;0.10;;;;;;;3.89;63.13;98642.34;5070341;28;20408;-72
2021/11/30 02:50:05;;;;;;;0.73;0.73;;;;;;;3.89;63.07;98644.94;5066390;28;20049;-72
2021/11/30 02:52:32;;;;;;;0.85;0.85;;;;;;;3.90;63.09;98646.59;5068553;28;20071;-72
2021/11/30 02:55:00;;;;;;;0.60;0.60;;;;;;;3.91;63.11;98648.28;5068410;28;20139;-72
2021/11/30 02:57:27;;;;;;;1.02;0.93;;;;;;;3.92;63.35;98659.56;5068015;28;20550;-71
2021/11/30 02:59:55;;;;;;;0.10;0.10;;;;;;;3.93;63.31;98667.28;5068504;28;20055;-73
2021/11/30 03:02:26;;;;;;;0.10;0.10;;;;;;;3.93;63.47;98666.47;5067607;28;20131;-71
2021/11/30 03:04:56;;;;;;;0.10;0.10;;;;;;;3.94;63.31;98648.06;5071143;28;20076;-71
2021/11/30 03:07:26;;;;;;;0.13;0.13;;;;;;;3.92;63.35;98660.38;5067739;28;20542;-71
2021/11/30 03:09:54;;;;;;;0.10;0.10;;;;;;;3.88;63.16;98658.94;5067306;28;20058;-70
2021/11/30 03:12:24;;;;;;;0.30;0.30;;;;;;;3.89;63.38;98668.44;5066053;28;20056;-74
2021/11/30 03:14:51;;;;;;;0.10;0.10;;;;;;;3.90;63.24;98671.88;5067385;28;20127;-72
2021/11/30 03:17:19;;;;;;;0.30;0.30;;;;;;;3.86;63.29;98665.22;5064348;28;20045;-70
2021/11/30 03:19:46;;;;;;;0.10;0.10;;;;;;;3.85;63.48;98672.19;5067197;28;20475;-72
2021/11/30 03:22:13;;;;;;;0.20;0.20;;;;;;;3.85;63.45;98663.53;5066592;28;20045;-70
2021/11/30 03:24:40;;;;;;;1.70;1.60;;;;;;;3.84;63.58;98673.16;5067422;28;20052;-74
2021/11/30 03:27:08;;;;;;;0.10;0.10;;;;;;;3.85;63.53;98664.34;5067544;28;20059;-75
2021/11/30 03:29:36;;;;;;;0.10;0.10;;;;;;;3.85;63.50;98666.97;5067738;28;20044;-74
2021/11/30 03:32:08;;;;;;;0.20;0.20;;;;;;;3.88;63.48;98658.94;5067836;28;20044;-74
2021/11/30 03:34:35;;;;;;;0.15;0.15;;;;;;;3.88;63.42;98666.75;5065958;28;20450;-74
2021/11/30 03:37:06;;;;;;;0.00;0.00;;;;;;;3.92;63.39;98670.00;5067031;28;20512;-72
2021/11/30 03:39:33;;;;;;;0.10;0.10;;;;;;;3.92;63.24;98670.81;5061377;28;20049;-73
2021/11/30 03:42:00;;;;;;;1.10;1.00;;;;;;;3.91;63.51;98669.16;5056271;28;20136;-76
2021/11/30 03:44:29;;;;;;;0.03;0.03;;;;;;;3.90;63.54;98672.72;5048090;28;20531;-75
2021/11/30 03:46:59;;;;;;;0.15;0.15;;;;;;;3.89;63.30;98678.03;5044561;28;20045;-71
2021/11/30 03:49:26;;;;;;;0.05;0.05;;;;;;;3.85;63.53;98664.34;5047461;28;20136;-75
2021/11/30 03:51:54;;;;;;;2.00;1.90;;;;;;;3.83;63.14;98674.09;5046741;28;20040;-72
2021/11/30 03:54:21;;;;;;;0.10;0.10;;;;;;;3.84;63.55;98683.59;5054542;28;20565;-69
2021/11/30 03:56:49;;;;;;;0.10;0.10;;;;;;;3.86;63.27;98671.25;5046222;28;20136;-70
2021/11/30 03:59:16;;;;;;;0.10;0.10;;;;;;;3.82;63.72;98667.22;5046428;28;20661;-70
2021/11/30 04:01:43;;;;;;;1.95;1.85;;;;;;;3.79;63.28;98686.53;5065686;28;20571;-70
2021/11/30 04:04:22;;;;;;;0.10;0.10;;;;;;;3.78;63.18;98684.00;5066115;28;20048;-71
2021/11/30 04:06:51;;;;;;;0.10;0.10;;;;;;;3.72;63.21;98676.63;5066130;28;20051;-72
2021/11/30 04:09:18;;;;;;;0.98;0.98;;;;;;;3.65;63.24;98678.81;5065934;28;20052;-72
2021/11/30 04:11:46;;;;;;;0.10;0.10;;;;;;;3.65;63.14;98676.19;5070837;28;20120;-73
2021/11/30 04:14:13;;;;;;;0.10;0.10;;;;;;;3.70;63.07;98688.94;5065269;28;20049;-70
2021/11/30 04:16:40;;;;;;;0.10;0.10;;;;;;;3.75;63.00;98685.06;5065115;28;20108;-73
2021/11/30 04:19:07;;;;;;;0.88;0.73;;;;;;;3.77;62.90;98690.19;5065870;28;20208;-70
2021/11/30 04:21:36;;;;;;;2.45;2.35;;;;;;;3.77;63.00;98690.19;5064451;28;20048;-71
2021/11/30 04:24:03;;;;;;;0.10;0.10;;;;;;;3.77;63.08;98688.41;5067748;28;20144;-74
2021/11/30 04:26:30;;;;;;;0.10;0.10;;;;;;;3.78;62.92;98690.09;5065629;28;20045;-71
2021/11/30 04:28:57;;;;;;;0.10;0.10;;;;;;;3.82;63.03;98685.50;5066313;28;20599;-70
2021/11/30 04:31:27;;;;;;;1.27;1.27;;;;;;;3.80;62.95;98690.81;5066891;28;20041;-69
2021/11/30 04:33:54;;;;;;;0.10;0.10;;;;;;;3.82;63.05;98680.28;5066876;28;20079;-71
2021/11/30 04:36:21;;;;;;;0.10;0.10;;;;;;;3.82;63.07;98690.72;5065282;28;20084;-72
2021/11/30 04:38:50;;;;;;;0.10;0.10;;;;;;;3.84;63.01;98681.00;5065499;28;20044;-74
2021/11/30 04:41:17;;;;;;;0.35;0.35;;;;;;;3.83;62.94;98681.91;5067148;28;20150;-74
2021/11/30 04:43:44;;;;;;;0.10;0.10;;;;;;;3.80;63.14;98679.53;5065313;28;20060;-72
2021/11/30 04:46:15;;;;;;;0.30;0.30;;;;;;;3.83;63.08;98680.16;5066638;28;20050;-75
2021/11/30 04:48:53;;;;;;;0.10;0.10;;;;;;;3.83;63.22;98679.31;5068445;28;20052;-75
2021/11/30 04:51:21;;;;;;;0.40;0.40;;;;;;;3.82;63.08;98669.81;5075139;28;20506;-73
2021/11/30 04:53:51;;;;;;;0.10;0.10;;;;;;;3.78;63.26;98679.66;5075743;28;20040;-71
2021/11/30 04:56:18;;;;;;;0.10;0.10;;;;;;;3.78;63.10;98673.56;5076437;28;20479;-73
2021/11/30 04:58:45;;;;;;;2.80;2.55;;;;;;;3.78;63.09;98670.94;5081690;28;20110;-72
2021/11/30 05:01:12;;;;;;;0.17;0.17;;;;;;;3.73;63.22;98671.28;5083584;28;20075;-73
2021/11/30 05:03:40;;;;;;;0.10;0.10;;;;;;;3.73;63.36;98671.28;5081280;28;20056;-74
2021/11/30 05:06:08;;;;;;;0.10;0.10;;;;;;;3.74;63.21;98677.34;5071718;28;20068;-78
2021/11/30 05:08:35;;;;;;;0.10;0.10;;;;;;;3.78;63.36;98673.56;5071612;28;20131;-72
2021/11/30 05:11:03;;;;;;;0.10;0.10;;;;;;;3.82;63.42;98681.09;5066542;28;20059;-73
2021/11/30 05:13:30;;;;;;;0.10;0.10;;;;;;;3.86;63.36;98681.72;5068545;28;20048;-75
2021/11/30 05:15:58;;;;;;;0.10;0.10;;;;;;;3.89;63.45;98685.88;5071239;28;20051;-75
2021/11/30 05:18:25;;;;;;;0.10;0.10;;;;;;;3.91;63.35;98684.00;5069202;28;20072;-75
2021/11/30 05:20:53;;;;;;;0.10;0.10;;;;;;;3.85;63.52;98679.19;5078771;28;20048;-74
2021/11/30 05:23:27;;;;;;;0.70;0.70;;;;;;;3.75;63.74;98679.84;5088260;28;20044;-75
2021/11/30 05:25:54;;;;;;;0.10;0.10;;;;;;;3.67;63.80;98674.31;5089031;28;20093;-75
2021/11/30 05:28:23;;;;;;;0.10;0.10;;;;;;;3.56;64.15;98674.22;5087757;28;20047;-74
2021/11/30 05:30:51;;;;;;;0.65;0.65;;;;;;;3.60;63.99;98681.75;5087791;28;20488;-74
2021/11/30 05:33:18;;;;;;;0.10;0.10;;;;;;;3.72;63.91;98669.59;5088637;28;20055;-77
2021/11/30 05:35:45;;;;;;;0.10;0.10;;;;;;;3.78;64.02;98678.78;5086355;28;20048;-74
2021/11/30 05:38:12;;;;;;;2.92;2.72;;;;;;;3.76;63.89;98683.28;5086553;28;20131;-75
2021/11/30 05:40:42;;;;;;;0.10;0.10;;;;;;;3.79;63.96;98678.69;5088715;28;20074;-74
2021/11/30 05:43:09;;;;;;;0.30;0.30;;;;;;;3.86;63.97;98673.88;5090058;28;20052;-75
2021/11/30 05:45:40;;;;;;;0.57;0.57;;;;;;;3.93;63.84;98677.72;5087649;28;20067;-74
2021/11/30 05:48:08;;;;;;;0.10;0.10;;;;;;;4.01;63.78;98670.16;5086022;28;20512;-74
2021/11/30 05:50:36;;;;;;;0.13;0.13;;;;;;;4.10;63.62;98675.69;5088713;28;20063;-74
2021/11/30 05:53:03;;;;;;;1.23;0.95;;;;;;;4.16;63.65;98685.69;5089127;28;20048;-76
2021/11/30 05:55:31;;;;;;;0.30;0.30;;;;;;;4.11;63.57;98669.53;5089200;28;20056;-75
2021/11/30 05:58:00;;;;;;;3.55;3.22;;;;;;;4.15;63.91;98670.97;5090776;28;20047;-77
2021/11/30 06:00:29;;;;;;;0.10;0.10;;;;;;;4.15;63.82;98678.81;5089234;28;20044;-72
2021/11/30 06:03:03;;;;;;;0.10;0.10;;;;;;;4.19;63.71;98682.88;5091219;28;20074;-72
2021/11/30 06:05:32;;;;;;;0.20;0.20;;;;;;;4.22;63.79;98687.91;5089170;28;20152;-71
2021/11/30 06:07:59;;;;;;;0.10;0.10;;;;;;;4.26;63.70;98689.34;5089702;28;20120;-73
2021/11/30 06:10:28;;;;;;;0.10;0.10;;;;;;;4.26;63.90;98685.91;5089804;28;20123;-73
2021/11/30 06:12:55;;;;;;;0.10;0.10;;;;;;;4.27;64.17;98688.41;5092945;28;20076;-71
2021/11/30 06:15:22;;;;;;;0.10;0.10;;;;;;;4.29;63.85;98680.47;5095983;28;20555;-78
2021/11/30 06:17:49;;;;;;;0.82;0.82;;;;;;;4.19;63.94;98675.88;5085592;28;20075;-73
2021/11/30 06:20:20;;;;;;;0.10;0.10;;;;;;;4.23;63.96;98679.09;5084911;28;20143;-75
2021/11/30 06:22:48;;;;;;;0.10;0.10;;;;;;;4.27;63.91;98672.72;5079364;28;20439;-73
2021/11/30 06:25:15;;;;;;;1.60;1.52;;;;;;;4.28;63.82;98676.97;5082295;28;20059;-75
2021/11/30 06:27:42;;;;;;;0.10;0.10;;;;;;;4.28;63.83;98678.78;5084345;28;20080;-73
2021/11/30 06:30:10;;;;;;;0.00;0.00;;;;;;;4.30;63.92;98677.72;5083909;28;20626;-74
2021/11/30 06:32:38;;;;;;;0.20;0.20;;;;;;;4.28;63.99;98671.75;5077568;28;20369;-73
2021/11/30 06:35:07;;;;;;;0.10;0.10;;;;;;;4.28;64.03;98676.97;5073291;28;20055;-75
2021/11/30 06:37:39;;;;;;;0.10;0.10;;;;;;;4.26;64.08;98680.66;5081936;28;20054;-73
2021/11/30 06:40:08;;;;;;;0.17;0.17;;;;;;;4.29;64.15;98678.66;5089139;28;20048;-78
2021/11/30 06:42:35;;;;;;;0.20;0.20;;;;;;;4.34;64.08;98680.94;5092552;28;20043;-79
2021/11/30 06:45:02;;;;;;;0.10;0.10;;;;;;;4.35;63.99;98686.06;5085539;28;20430;-72
2021/11/30 06:47:30;;;;;;;0.10;0.10;;;;;;;4.35;63.94;98677.38;5084890;28;20078;-73
2021/11/30 06:49:57;;;;;;;0.10;0.10;;;;;;;4.33;63.93;98669.66;5072224;28;20383;-78
2021/11/30 06:52:25;;;;;;;0.20;0.20;;;;;;;4.33;64.15;98668.84;5086298;28;20087;-74
2021/11/30 06:54:54;;;;;;;1.00;1.00;;;;;;;4.33;64.15;98669.66;5088678;28;20101;-72
2021/11/30 06:57:22;;;;;;;0.10;0.10;;;;;;;4.34;64.10;98671.34;5084297;28;20116;-72
2021/11/30 06:59:50;;;;;;;0.10;0.10;;;;;;;4.38;64.14;98661.50;5081564;28;20086;-72
2021/11/30 07:02:17;;;;;;;0.10;0.10;;;;;;;4.39;64.01;98661.38;5086464;28;20054;-74
2021/11/30 07:04:48;;;;;;;0.43;0.43;;;;;;;4.40;63.83;98676.09;5084473;28;20509;-73
2021/11/30 07:07:22;;;;;;;0.15;0.15;;;;;;;4.43;63.85;98668.97;5088225;28;20048;-72
2021/11/30 07:10:05;;;;;;;0.20;0.20;;;;;;;4.49;63.81;98674.63;5084819;28;20052;-72
2021/11/30 07:12:50;;;;;;;0.47;0.47;;;;;;;4.52;63.71;98663.09;5083498;28;20546;-74
2021/11/30 07:15:17;;;;;;;1.45;1.45;;;;;;;4.44;63.58;98668.88;5083700;28;20109;-72
2021/11/30 07:17:44;;;;;;;2.25;1.80;;;;;;;4.48;63.63;98659.84;5083342;28;20313;-74
2021/11/30 07:20:12;;;;;;;0.90;0.90;;;;;;;4.50;63.62;98655.38;5086817;28;20036;-73
2021/11/30 07:22:39;;;;;;;0.10;0.10;;;;;;;4.50;63.59;98654.53;5068945;28;20044;-73
2021/11/30 07:25:08;;;;;;;0.10;0.10;;;;;;;4.51;63.70;98651.81;5084644;28;20054;-72
2021/11/30 07:27:37;;;;;;;0.10;0.10;;;;;;;4.50;63.74;98649.28;5080018;28;20052;-71
2021/11/30 07:30:05;;;;;;;0.10;0.10;;;;;;;4.39;63.72;98647.47;5085586;28;20062;-74
2021/11/30 07:32:32;;;;;;;0.30;0.30;;;;;;;4.34;63.91;98646.94;5084508;28;20066;-72
2021/11/30 07:35:00;;;;;;;0.17;0.17;;;;;;;4.32;63.91;98641.88;5084350;28;20048;-72
2021/11/30 07:37:26;;;;;;;0.10;0.10;;;;;;;4.18;63.70;98634.19;5083936;28;20044;-72
2021/11/30 07:39:53;;;;;;;0.55;0.55;;;;;;;4.04;64.02;98640.41;5083987;28;20134;-74
2021/11/30 07:42:24;;;;;;;0.10;0.10;;;;;;;3.92;64.03;98649.09;5084257;28;20054;-72
2021/11/30 07:44:52;;;;;;;0.65;0.43;;;;;;;3.84;64.05;98641.81;5083486;28;20165;-73
2021/11/30 07:47:19;;;;;;;0.22;0.22;;;;;;;3.78;64.37;98632.63;5082341;28;20559;-75
2021/11/30 07:49:46;;;;;;;0.10;0.10;;;;;;;3.76;64.29;98628.44;5087015;28;20151;-73
2021/11/30 07:52:13;;;;;;;0.10;0.10;;;;;;;3.75;64.21;98625.00;5083837;28;20671;-75
2021/11/30 07:54:40;;;;;;;0.10;0.10;;;;;;;3.74;64.24;98620.72;5087028;28;20044;-74
2021/11/30 07:57:08;;;;;;;0.57;0.47;;;;;;;3.84;64.10;98610.47;5083655;28;20123;-74
2021/11/30 07:59:36;;;;;;;0.25;0.25;;;;;;;3.94;63.95;98597.56;5065276;28;20109;-72
2021/11/30 08:02:05;;;;;;;0.10;0.10;;;;;;;4.03;63.89;98602.13;5036601;28;20423;-71
2021/11/30 08:04:33;;;;;;;0.10;0.10;;;;;;;4.11;63.79;98588.53;5087802;28;20056;-74
2021/11/30 08:07:00;;;;;;;0.10;0.10;;;;;;;4.26;64.03;98592.63;5089307;28;20050;-74
2021/11/30 08:09:28;;;;;;;0.10;0.10;;;;;;;4.44;63.46;98587.00;5085298;28;20083;-74
2021/11/30 08:11:56;;;;;;;0.55;0.55;;;;;;;4.51;63.46;98570.75;5083080;28;20097;-76
2021/11/30 08:14:23;;;;;;;0.10;0.10;;;;;;;4.54;63.41;98582.78;5084929;28;20055;-75
2021/11/30 08:16:49;;;;;;;0.40;0.40;;;;;;;4.63;63.25;98582.09;5082845;28;20657;-75
2021/11/30 08:19:19;;;;;;;0.10;0.10;;;;;;;4.69;63.11;98571.16;5087805;28;20054;-75
2021/11/30 08:21:46;;;;;;;0.10;0.10;;;;;;;4.82;62.98;98575.47;5086242;28;20075;-72
2021/11/30 08:24:13;;;;;;;0.88;0.88;;;;;;;4.91;62.84;98578.19;5091775;28;20075;-76
2021/11/30 08:26:41;;;;;;;0.10;0.10;;;;;;;5.00;62.82;98562.78;5082595;28;20090;-73
2021/11/30 08:29:08;;;;;;;0.90;0.90;;;;;;;5.11;62.57;98566.25;5083963;28;20056;-77
2021/11/30 08:31:35;;;;;;;0.00;0.00;;;;;;;5.24;62.50;98557.41;5082129;28;20135;-76
2021/11/30 08:34:02;;;;;;;0.25;0.25;;;;;;;5.27;62.39;98554.56;5083093;28;20507;-74
2021/11/30 08:36:31;;;;;;;0.10;0.10;;;;;;;5.20;62.37;98553.38;5088295;28;20052;-74
2021/11/30 08:38:58;;;;;;;0.10;0.10;;;;;;;5.10;62.48;98545.41;5075005;28;20724;-73
2021/11/30 08:41:25;;;;;;;0.13;0.13;;;;;;;5.08;62.69;98549.94;5073492;28;20098;-73
2021/11/30 08:43:52;;;;;;;1.75;1.67;;;;;;;5.02;62.57;98537.31;5071455;28;20040;-73
2021/11/30 08:46:20;;;;;;;0.10;0.10;;;;;;;5.04;62.70;98533.66;5072463;28;20646;-72
2021/11/30 08:48:47;;;;;;;0.10;0.10;;;;;;;5.04;62.39;98531.03;5069802;28;20079;-73
2021/11/30 08:51:14;;;;;;;0.10;0.10;;;;;;;5.05;62.54;98524.81;5070434;28;20127;-73
2021/11/30 08:53:43;;;;;;;0.35;0.35;;;;;;;5.10;62.66;98516.63;5070084;28;20123;-73
2021/11/30 08:56:11;;;;;;;0.10;0.10;;;;;;;5.15;62.31;98512.69;5070175;28;20745;-74
2021/11/30 08:58:38;;;;;;;0.40;0.40;;;;;;;5.19;62.26;98515.91;5071531;28;20530;-73
2021/11/30 09:01:05;;;;;;;1.30;1.30;;;;;;;5.17;62.57;98505.56;5068881;28;20072;-75
2021/11/30 09:03:32;;;;;;;2.38;2.28;;;;;;;5.20;62.45;98501.84;5080155;28;20059;-73
2021/11/30 09:06:00;;;;;;;0.10;0.10;;;;;;;5.21;62.44;98494.84;5074054;28;20145;-72
2021/11/30 09:08:27;;;;;;;0.10;0.10;;;;;;;5.22;62.32;98493.88;5070919;28;20055;-74
2021/11/30 09:10:56;;;;;;;0.63;0.63;;;;;;;5.20;62.36;98494.00;5073970;28;20102;-72
2021/11/30 09:13:23;;;;;;;0.20;0.20;;;;;;;5.17;62.41;98486.41;5070342;28;20121;-73
2021/11/30 09:15:50;;;;;;;0.10;0.10;;;;;;;5.08;62.62;98474.88;5071656;28;20052;-72
2021/11/30 09:18:17;;;;;;;0.32;0.32;;;;;;;5.03;62.82;98474.41;5069980;28;20653;-74
2021/11/30 09:20:45;;;;;;;0.10;0.10;;;;;;;4.94;62.89;98472.50;5071511;28;20101;-74
2021/11/30 09:23:12;;;;;;;0.10;0.10;;;;;;;4.86;63.02;98467.88;5072816;28;20281;-73
2021/11/30 09:25:39;;;;;;;0.10;0.10;;;;;;;4.86;63.00;98465.25;5072431;28;20098;-72
2021/11/30 09:46:42;;;;;;;;;;;;;;;5.88;63.61;98394.28;4999856;28;20391;-75
2021/11/30 09:49:09;;;;;;;0.10;0.10;;;;;;;5.79;62.91;98385.41;4988486;28;20160;-74
2021/11/30 09:51:36;;;;;;;0.25;0.25;;;;;;;5.67;62.88;98366.31;4986994;28;20053;-74
2021/11/30 09:54:03;;;;;;;0.10;0.10;;;;;;;5.64;62.81;98370.97;4988517;28;20592;-74
2021/11/30 09:56:30;;;;;;;0.10;0.10;;;;;;;5.55;63.08;98364.69;4989231;28;20122;-75
2021/11/30 09:58:58;;;;;;;6.28;3.20;;;;;;;5.60;62.79;98361.69;4986188;28;20043;-74
2021/11/30 10:01:25;;;;;;;0.10;0.10;;;;;;;5.58;62.91;98360.97;4986583;28;20156;-75
2021/11/30 10:03:54;;;;;;;0.10;0.10;;;;;;;5.55;62.80;98346.38;4986360;28;20081;-74
2021/11/30 10:06:21;;;;;;;0.10;0.10;;;;;;;5.53;62.77;98345.66;4990866;28;20042;-72
2021/11/30 10:08:54;;;;;;;0.20;0.20;;;;;;;5.55;62.95;98344.56;4992658;28;20125;-74
2021/11/30 10:11:32;;;;;;;0.10;0.10;;;;;;;5.52;62.94;98339.56;4988997;28;20049;-72
2021/11/30 10:14:10;;;;;;;6.22;1.85;;;;;;;5.42;62.86;98336.06;4987924;28;20052;-71
2021/11/30 10:16:37;;;;;;;0.10;0.10;;;;;;;5.36;62.99;98326.91;4986170;28;20080;-73
2021/11/30 10:38:51;;;;;;;0.10;0.10;;;;;;;5.51;64.65;98267.22;5078817;27;1692218;-74
2021/11/30 10:41:20;;;;;;;0.10;0.10;;;;;;;5.84;63.26;98248.81;5110272;28;20044;-74
2021/11/30 10:43:56;;;;;;;0.10;0.10;;;;;;;5.89;62.92;98241.38;5110310;28;20040;-73
2021/11/30 10:46:25;;;;;;;0.10;0.10;;;;;;;6.02;62.67;98242.00;5111978;28;20587;-75
2021/11/30 10:48:55;;;;;;;0.10;0.10;;;;;;;6.12;62.47;98236.81;5103585;28;20127;-75
2021/11/30 10:51:22;;;;;;;0.43;0.43;;;;;;;6.26;62.28;98233.00;5051826;28;20048;-75
2021/11/30 10:53:55;;;;;;;0.10;0.10;;;;;;;6.35;62.40;98213.00;5100734;28;20192;-76
2021/11/30 10:56:23;;;;;;;0.20;0.20;;;;;;;6.46;61.87;98210.25;5099427;28;20143;-74
2021/11/30 10:58:54;;;;;;;0.10;0.10;;;;;;;6.45;61.97;98193.72;5106118;28;20053;-73
2021/11/30 11:01:25;;;;;;;1.38;1.35;;;;;;;6.54;61.87;98199.13;5115907;28;20679;-71
2021/11/30 11:04:07;;;;;;;1.45;1.23;;;;;;;6.56;61.92;98186.69;5111934;28;20036;-73
2021/11/30 11:06:36;;;;;;;0.10;0.10;;;;;;;6.58;61.67;98175.09;5106276;28;20329;-73
2021/11/30 11:09:08;;;;;;;0.10;0.10;;;;;;;6.56;61.81;98168.34;5108955;28;20046;-75
2021/11/30 11:11:38;;;;;;;0.50;0.50;;;;;;;6.56;61.80;98156.03;5110423;28;20130;-72
2021/11/30 11:14:07;;;;;;;0.15;0.15;;;;;;;6.66;61.72;98142.91;5091030;28;20039;-76
2021/11/30 11:16:36;;;;;;;0.10;0.10;;;;;;;6.80;61.60;98141.66;5094259;28;20050;-75
2021/11/30 11:19:05;;;;;;;0.10;0.10;;;;;;;6.84;61.38;98138.66;5113385;28;20627;-74
2021/11/30 11:21:34;;;;;;;0.10;0.10;;;;;;;6.78;61.74;98123.44;5107900;28;20103;-72
2021/11/30 11:24:08;;;;;;;0.10;0.10;;;;;;;6.80;61.60;98125.94;5108602;28;20036;-74
2021/11/30 11:26:40;;;;;;;0.75;0.75;;;;;;;6.82;61.59;98116.13;5107087;28;20050;-73
2021/11/30 11:42:48;;;;;;;1.80;1.65;;;;;;;6.43;63.60;98067.16;5004278;27;2333200;-77
2021/11/30 11:45:15;;;;;;;0.00;0.00;;;;;;;6.47;62.96;98046.72;5080224;28;20392;-76
2021/11/30 11:47:42;;;;;;;0.10;0.10;;;;;;;6.42;62.81;98033.19;5076601;28;20045;-73
2021/11/30 11:50:14;;;;;;;0.10;0.10;;;;;;;6.43;62.60;98037.50;5079179;28;20070;-73
2021/11/30 11:52:41;;;;;;;0.10;0.10;;;;;;;6.44;62.45;98018.97;5078689;28;20048;-74
2021/11/30 11:55:13;;;;;;;0.30;0.30;;;;;;;6.40;62.29;98022.03;5077293;28;20048;-72
2021/11/30 11:57:55;;;;;;;0.00;0.00;;;;;;;6.36;62.46;98004.94;5078952;28;20048;-72
2021/11/30 12:00:27;;;;;;;0.13;0.13;;;;;;;6.24;62.49;98002.44;5078323;28;20059;-72
2021/11/30 12:03:00;;;;;;;0.10;0.10;;;;;;;6.15;62.68;97994.59;5075422;28;20048;-74
2021/11/30 12:05:41;;;;;;;0.10;0.10;;;;;;;6.00;62.83;97984.53;5078439;28;20063;-73
2021/11/30 12:08:19;;;;;;;0.10;0.10;;;;;;;5.92;62.92;97966.84;5073542;28;20050;-71
2021/11/30 12:10:48;;;;;;;0.10;0.10;;;;;;;5.82;62.70;97962.56;5067112;28;20050;-73
2021/11/30 12:13:22;;;;;;;0.10;0.10;;;;;;;5.79;62.96;97962.84;5067251;28;20053;-73
2021/11/30 12:16:00;;;;;;;0.47;0.47;;;;;;;5.73;62.99;97951.94;5066529;28;20615;-75
2021/11/30 12:18:32;;;;;;;0.10;0.10;;;;;;;5.71;62.90;97938.16;5068097;28;20404;-72
2021/11/30 12:21:09;;;;;;;0.10;0.10;;;;;;;5.65;62.94;97938.69;5070193;28;20037;-73
2021/11/30 12:23:37;;;;;;;0.75;0.75;;;;;;;5.65;62.98;97932.63;5070720;28;20046;-75
2021/11/30 12:26:05;;;;;;;1.15;1.05;;;;;;;5.66;62.86;97929.06;5050640;28;20087;-74
2021/11/30 12:28:37;;;;;;;0.20;0.20;;;;;;;5.66;62.95;97915.97;5075034;28;20481;-72
2021/11/30 12:31:07;;;;;;;0.73;0.73;;;;;;;5.68;62.77;97917.47;5077040;28;20591;-73
2021/11/30 12:33:37;;;;;;;0.10;0.10;;;;;;;5.68;62.81;97903.56;5050530;28;20816;-77
2021/11/30 12:36:06;;;;;;;0.63;0.63;;;;;;;5.65;62.83;97894.16;5049697;28;20042;-71
2021/11/30 12:38:36;;;;;;;0.10;0.10;;;;;;;5.64;62.89;97881.25;5054082;28;20041;-73
2021/11/30 12:41:29;;;;;;;0.10;0.10;;;;;;;5.68;62.93;97883.44;5048925;28;20049;-73